Ames, Texas
Current Conditions -  °F | °C
As of 8:55 AM on Sunday 23 Nov 2014 (Local Time) from KBMT Reporting Station
Overcast Overcast  
Wind Chill: 62°   Ceiling: 700
Heat Index: 62°   Visibility: 10mi
Dew Point: 60°   Wind: 12mph
Humidity: 92%   Direction: 230°SW
Pressure: 29.66"   Gusts: 20mph
Location:  30.0821°N, 94.7401°W
Report Text: KBMT 231455Z AUTO 23010G17KT 10SM BKN007 OVC014 17/15 A2966 RMK AO2 T01660153
Loading
Personal Weather Stations






























Interactive Weather Map New forecast layout! Learn more

10-Day Weather Forecast

Advertisements
Track Severe Weather on mobile